Terminal Aerodrome Forecast
Issued by NWS

Home | Current Version | Previous Version | Text Only | Print | Product List | Glossary On
Versions: 1 2 3 4 5 6 7 8 9 10 11 12 13 14
497
FTUS41 KPBZ 232320
TAFAGC
TAF
KAGC 232320Z 2400/2424 14012KT P6SM BKN120
     FM240900 09006KT P6SM -RA OVC050
     FM241500 12010G18KT 5SM -RA OVC015
     FM242100 12012G20KT P6SM OVC025=

USA.gov is the U.S. government's official web portal to all federal, state and local government web resources and services.